sensor_id;sensor_type;location;lat;lon;timestamp;P1;durP1;ratioP1;P2;durP2;ratioP2
59930;SDS011;45790;51.538;6.736;2022-11-15T00:01:58;5.82;;;3.65;;
59930;SDS011;45790;51.538;6.736;2022-11-15T00:04:24;5.82;;;3.70;;
59930;SDS011;45790;51.538;6.736;2022-11-15T00:06:49;6.88;;;4.10;;
59930;SDS011;45790;51.538;6.736;2022-11-15T00:09:14;5.78;;;4.05;;
59930;SDS011;45790;51.538;6.736;2022-11-15T00:11:40;6.43;;;3.90;;
59930;SDS011;45790;51.538;6.736;2022-11-15T00:14:05;5.55;;;3.70;;
59930;SDS011;45790;51.538;6.736;2022-11-15T00:16:30;5.95;;;3.92;;
59930;SDS011;45790;51.538;6.736;2022-11-15T00:18:56;6.38;;;3.85;;
59930;SDS011;45790;51.538;6.736;2022-11-15T00:21:22;6.35;;;3.30;;
59930;SDS011;45790;51.538;6.736;2022-11-15T00:23:47;5.70;;;3.72;;
59930;SDS011;45790;51.538;6.736;2022-11-15T00:26:13;5.90;;;3.28;;
59930;SDS011;45790;51.538;6.736;2022-11-15T00:28:40;5.93;;;3.55;;
59930;SDS011;45790;51.538;6.736;2022-11-15T00:31:07;6.35;;;3.50;;
59930;SDS011;45790;51.538;6.736;2022-11-15T00:33:34;5.35;;;3.40;;
59930;SDS011;45790;51.538;6.736;2022-11-15T00:36:00;5.03;;;3.25;;
59930;SDS011;45790;51.538;6.736;2022-11-15T00:38:30;7.13;;;3.58;;
59930;SDS011;45790;51.538;6.736;2022-11-15T00:40:57;4.80;;;3.10;;
59930;SDS011;45790;51.538;6.736;2022-11-15T00:43:22;5.07;;;3.25;;
59930;SDS011;45790;51.538;6.736;2022-11-15T00:45:47;4.95;;;3.30;;
59930;SDS011;45790;51.538;6.736;2022-11-15T00:48:13;6.63;;;3.20;;
59930;SDS011;45790;51.538;6.736;2022-11-15T00:50:38;5.28;;;3.45;;
59930;SDS011;45790;51.538;6.736;2022-11-15T00:53:03;5.10;;;3.13;;
59930;SDS011;45790;51.538;6.736;2022-11-15T00:55:29;6.00;;;3.13;;
59930;SDS011;45790;51.538;6.736;2022-11-15T00:57:54;4.75;;;3.42;;
59930;SDS011;45790;51.538;6.736;2022-11-15T01:00:19;5.90;;;3.20;;
59930;SDS011;45790;51.538;6.736;2022-11-15T01:02:45;4.68;;;3.50;;
59930;SDS011;45790;51.538;6.736;2022-11-15T01:05:10;5.53;;;3.33;;
59930;SDS011;45790;51.538;6.736;2022-11-15T01:07:35;4.68;;;3.05;;
59930;SDS011;45790;51.538;6.736;2022-11-15T01:10:01;5.35;;;3.38;;
59930;SDS011;45790;51.538;6.736;2022-11-15T01:12:26;5.10;;;3.20;;
59930;SDS011;45790;51.538;6.736;2022-11-15T01:14:52;4.63;;;2.90;;
59930;SDS011;45790;51.538;6.736;2022-11-15T01:17:19;4.18;;;2.97;;
59930;SDS011;45790;51.538;6.736;2022-11-15T01:19:45;5.40;;;3.25;;
59930;SDS011;45790;51.538;6.736;2022-11-15T01:22:10;4.28;;;3.00;;
59930;SDS011;45790;51.538;6.736;2022-11-15T01:24:35;5.78;;;3.03;;
59930;SDS011;45790;51.538;6.736;2022-11-15T01:27:01;4.60;;;3.13;;
59930;SDS011;45790;51.538;6.736;2022-11-15T01:29:28;5.35;;;3.15;;
59930;SDS011;45790;51.538;6.736;2022-11-15T01:31:54;4.82;;;3.03;;
59930;SDS011;45790;51.538;6.736;2022-11-15T01:34:19;6.03;;;3.47;;
59930;SDS011;45790;51.538;6.736;2022-11-15T01:36:44;6.00;;;2.95;;
59930;SDS011;45790;51.538;6.736;2022-11-15T01:39:10;6.00;;;3.30;;
59930;SDS011;45790;51.538;6.736;2022-11-15T01:41:35;4.85;;;3.15;;
59930;SDS011;45790;51.538;6.736;2022-11-15T01:46:56;5.05;;;3.03;;
59930;SDS011;45790;51.538;6.736;2022-11-15T01:49:22;4.63;;;3.15;;
59930;SDS011;45790;51.538;6.736;2022-11-15T01:51:49;5.57;;;3.25;;
59930;SDS011;45790;51.538;6.736;2022-11-15T01:54:15;5.38;;;3.42;;
59930;SDS011;45790;51.538;6.736;2022-11-15T01:56:43;4.45;;;3.05;;
59930;SDS011;45790;51.538;6.736;2022-11-15T01:59:11;5.53;;;3.47;;
59930;SDS011;45790;51.538;6.736;2022-11-15T02:01:37;5.72;;;3.20;;
59930;SDS011;45790;51.538;6.736;2022-11-15T02:07:05;5.95;;;3.40;;
59930;SDS011;45790;51.538;6.736;2022-11-15T02:09:35;5.80;;;3.28;;
59930;SDS011;45790;51.538;6.736;2022-11-15T02:12:01;5.32;;;3.13;;
59930;SDS011;45790;51.538;6.736;2022-11-15T02:14:27;5.85;;;3.10;;
59930;SDS011;45790;51.538;6.736;2022-11-15T02:17:02;6.95;;;3.50;;
59930;SDS011;45790;51.538;6.736;2022-11-15T02:26:06;6.35;;;3.40;;
59930;SDS011;45790;51.538;6.736;2022-11-15T02:34:25;7.10;;;3.50;;
59930;SDS011;45790;51.538;6.736;2022-11-15T02:37:07;6.30;;;3.50;;
59930;SDS011;45790;51.538;6.736;2022-11-15T02:39:39;6.38;;;3.63;;
59930;SDS011;45790;51.538;6.736;2022-11-15T02:42:11;8.20;;;4.00;;
59930;SDS011;45790;51.538;6.736;2022-11-15T02:44:58;8.73;;;3.80;;
59930;SDS011;45790;51.538;6.736;2022-11-15T02:47:28;7.05;;;3.97;;
59930;SDS011;45790;51.538;6.736;2022-11-15T02:49:56;6.15;;;3.80;;
59930;SDS011;45790;51.538;6.736;2022-11-15T02:52:24;6.80;;;3.85;;
59930;SDS011;45790;51.538;6.736;2022-11-15T02:54:54;7.43;;;3.60;;
59930;SDS011;45790;51.538;6.736;2022-11-15T02:57:26;6.55;;;4.15;;
59930;SDS011;45790;51.538;6.736;2022-11-15T03:00:11;8.10;;;3.78;;
59930;SDS011;45790;51.538;6.736;2022-11-15T03:08:06;7.88;;;3.70;;
59930;SDS011;45790;51.538;6.736;2022-11-15T03:11:11;7.22;;;3.85;;
59930;SDS011;45790;51.538;6.736;2022-11-15T03:13:40;6.68;;;3.60;;
59930;SDS011;45790;51.538;6.736;2022-11-15T03:16:44;7.22;;;4.10;;
59930;SDS011;45790;51.538;6.736;2022-11-15T03:21:53;6.43;;;3.55;;
59930;SDS011;45790;51.538;6.736;2022-11-15T03:24:20;6.63;;;4.10;;
59930;SDS011;45790;51.538;6.736;2022-11-15T03:26:46;6.13;;;3.50;;
59930;SDS011;45790;51.538;6.736;2022-11-15T03:29:13;8.15;;;3.60;;
59930;SDS011;45790;51.538;6.736;2022-11-15T03:31:43;6.65;;;3.97;;
59930;SDS011;45790;51.538;6.736;2022-11-15T03:34:15;7.07;;;3.95;;
59930;SDS011;45790;51.538;6.736;2022-11-15T03:36:48;7.70;;;4.10;;
59930;SDS011;45790;51.538;6.736;2022-11-15T03:39:14;7.93;;;3.80;;
59930;SDS011;45790;51.538;6.736;2022-11-15T03:41:56;6.72;;;3.70;;
59930;SDS011;45790;51.538;6.736;2022-11-15T03:49:36;6.15;;;3.97;;
59930;SDS011;45790;51.538;6.736;2022-11-15T03:52:03;6.55;;;3.70;;
59930;SDS011;45790;51.538;6.736;2022-11-15T03:54:29;7.15;;;4.15;;
59930;SDS011;45790;51.538;6.736;2022-11-15T03:56:55;8.55;;;3.60;;
59930;SDS011;45790;51.538;6.736;2022-11-15T03:59:20;6.57;;;3.90;;
59930;SDS011;45790;51.538;6.736;2022-11-15T04:01:45;5.93;;;3.42;;
59930;SDS011;45790;51.538;6.736;2022-11-15T04:04:11;7.43;;;3.58;;
59930;SDS011;45790;51.538;6.736;2022-11-15T04:06:36;6.10;;;3.67;;
59930;SDS011;45790;51.538;6.736;2022-11-15T04:09:04;8.05;;;3.88;;
59930;SDS011;45790;51.538;6.736;2022-11-15T04:11:29;5.97;;;3.53;;
59930;SDS011;45790;51.538;6.736;2022-11-15T04:13:55;7.22;;;3.60;;
59930;SDS011;45790;51.538;6.736;2022-11-15T04:16:20;5.78;;;3.47;;
59930;SDS011;45790;51.538;6.736;2022-11-15T04:18:45;5.93;;;3.80;;
59930;SDS011;45790;51.538;6.736;2022-11-15T04:21:31;7.10;;;3.65;;
59930;SDS011;45790;51.538;6.736;2022-11-15T04:24:14;5.70;;;3.53;;
59930;SDS011;45790;51.538;6.736;2022-11-15T04:26:42;6.63;;;3.40;;
59930;SDS011;45790;51.538;6.736;2022-11-15T04:29:07;5.68;;;3.35;;
59930;SDS011;45790;51.538;6.736;2022-11-15T04:31:51;6.55;;;3.83;;
59930;SDS011;45790;51.538;6.736;2022-11-15T04:34:16;6.63;;;3.53;;
59930;SDS011;45790;51.538;6.736;2022-11-15T04:36:42;6.30;;;3.53;;
59930;SDS011;45790;51.538;6.736;2022-11-15T04:39:25;6.10;;;3.30;;
59930;SDS011;45790;51.538;6.736;2022-11-15T04:41:51;5.38;;;3.50;;
59930;SDS011;45790;51.538;6.736;2022-11-15T04:44:16;5.95;;;3.75;;
59930;SDS011;45790;51.538;6.736;2022-11-15T04:46:41;7.63;;;3.53;;
59930;SDS011;45790;51.538;6.736;2022-11-15T04:49:07;5.47;;;3.40;;
59930;SDS011;45790;51.538;6.736;2022-11-15T04:51:34;9.68;;;3.97;;
59930;SDS011;45790;51.538;6.736;2022-11-15T04:54:00;8.43;;;3.58;;
59930;SDS011;45790;51.538;6.736;2022-11-15T04:56:25;6.53;;;3.60;;
59930;SDS011;45790;51.538;6.736;2022-11-15T04:58:51;6.13;;;3.75;;
59930;SDS011;45790;51.538;6.736;2022-11-15T05:01:16;6.10;;;3.50;;
59930;SDS011;45790;51.538;6.736;2022-11-15T05:03:42;7.28;;;3.40;;
59930;SDS011;45790;51.538;6.736;2022-11-15T05:06:28;9.40;;;3.60;;
59930;SDS011;45790;51.538;6.736;2022-11-15T05:08:54;7.40;;;3.78;;
59930;SDS011;45790;51.538;6.736;2022-11-15T05:11:19;6.88;;;3.33;;
59930;SDS011;45790;51.538;6.736;2022-11-15T05:13:45;6.30;;;3.40;;
59930;SDS011;45790;51.538;6.736;2022-11-15T05:16:10;5.72;;;3.60;;
59930;SDS011;45790;51.538;6.736;2022-11-15T05:18:36;7.50;;;3.30;;
59930;SDS011;45790;51.538;6.736;2022-11-15T05:21:08;5.90;;;3.90;;
59930;SDS011;45790;51.538;6.736;2022-11-15T05:23:35;6.03;;;3.42;;
59930;SDS011;45790;51.538;6.736;2022-11-15T05:26:01;5.38;;;3.63;;
59930;SDS011;45790;51.538;6.736;2022-11-15T05:28:28;5.88;;;3.30;;
59930;SDS011;45790;51.538;6.736;2022-11-15T05:31:00;6.65;;;3.13;;
59930;SDS011;45790;51.538;6.736;2022-11-15T05:33:26;6.28;;;3.55;;
59930;SDS011;45790;51.538;6.736;2022-11-15T05:35:54;5.82;;;3.80;;
59930;SDS011;45790;51.538;6.736;2022-11-15T05:38:25;6.28;;;3.80;;
59930;SDS011;45790;51.538;6.736;2022-11-15T05:40:51;7.00;;;3.85;;
59930;SDS011;45790;51.538;6.736;2022-11-15T05:43:16;6.78;;;4.07;;
59930;SDS011;45790;51.538;6.736;2022-11-15T05:45:41;6.07;;;3.78;;
59930;SDS011;45790;51.538;6.736;2022-11-15T05:48:07;6.22;;;3.72;;
59930;SDS011;45790;51.538;6.736;2022-11-15T05:50:34;6.80;;;3.85;;
59930;SDS011;45790;51.538;6.736;2022-11-15T05:53:01;7.07;;;4.00;;
59930;SDS011;45790;51.538;6.736;2022-11-15T05:55:27;6.60;;;3.78;;
59930;SDS011;45790;51.538;6.736;2022-11-15T05:57:52;5.78;;;3.55;;
59930;SDS011;45790;51.538;6.736;2022-11-15T06:00:18;5.90;;;3.67;;
59930;SDS011;45790;51.538;6.736;2022-11-15T06:02:43;6.53;;;3.78;;
59930;SDS011;45790;51.538;6.736;2022-11-15T06:05:08;5.60;;;3.78;;
59930;SDS011;45790;51.538;6.736;2022-11-15T06:07:34;5.70;;;3.45;;
59930;SDS011;45790;51.538;6.736;2022-11-15T06:09:59;6.53;;;3.47;;
59930;SDS011;45790;51.538;6.736;2022-11-15T06:12:24;7.00;;;3.20;;
59930;SDS011;45790;51.538;6.736;2022-11-15T06:14:50;5.35;;;3.38;;
59930;SDS011;45790;51.538;6.736;2022-11-15T06:17:15;5.97;;;3.35;;
59930;SDS011;45790;51.538;6.736;2022-11-15T06:19:40;6.43;;;3.38;;
59930;SDS011;45790;51.538;6.736;2022-11-15T06:22:08;4.82;;;3.28;;
59930;SDS011;45790;51.538;6.736;2022-11-15T06:24:34;5.35;;;3.40;;
59930;SDS011;45790;51.538;6.736;2022-11-15T06:26:59;4.65;;;3.08;;
59930;SDS011;45790;51.538;6.736;2022-11-15T06:29:25;7.10;;;3.53;;
59930;SDS011;45790;51.538;6.736;2022-11-15T06:31:50;5.18;;;3.35;;
59930;SDS011;45790;51.538;6.736;2022-11-15T06:34:18;6.10;;;3.30;;
59930;SDS011;45790;51.538;6.736;2022-11-15T06:36:43;5.20;;;3.25;;
59930;SDS011;45790;51.538;6.736;2022-11-15T06:39:09;4.82;;;3.30;;
59930;SDS011;45790;51.538;6.736;2022-11-15T06:41:34;5.72;;;3.35;;
59930;SDS011;45790;51.538;6.736;2022-11-15T06:44:00;5.05;;;3.20;;
59930;SDS011;45790;51.538;6.736;2022-11-15T06:46:25;5.43;;;3.25;;
59930;SDS011;45790;51.538;6.736;2022-11-15T06:48:51;5.32;;;3.20;;
59930;SDS011;45790;51.538;6.736;2022-11-15T06:51:17;6.10;;;3.10;;
59930;SDS011;45790;51.538;6.736;2022-11-15T06:53:42;5.38;;;3.15;;
59930;SDS011;45790;51.538;6.736;2022-11-15T06:56:08;6.00;;;3.17;;
59930;SDS011;45790;51.538;6.736;2022-11-15T06:58:34;5.32;;;3.20;;
59930;SDS011;45790;51.538;6.736;2022-11-15T07:01:07;4.63;;;3.15;;
59930;SDS011;45790;51.538;6.736;2022-11-15T07:03:34;6.05;;;3.45;;
59930;SDS011;45790;51.538;6.736;2022-11-15T07:06:09;5.30;;;3.25;;
59930;SDS011;45790;51.538;6.736;2022-11-15T07:08:36;4.45;;;3.10;;
59930;SDS011;45790;51.538;6.736;2022-11-15T07:11:02;5.13;;;3.10;;
59930;SDS011;45790;51.538;6.736;2022-11-15T07:13:29;7.53;;;3.60;;
59930;SDS011;45790;51.538;6.736;2022-11-15T07:16:01;5.63;;;3.27;;
59930;SDS011;45790;51.538;6.736;2022-11-15T07:18:37;5.78;;;3.35;;
59930;SDS011;45790;51.538;6.736;2022-11-15T07:21:04;5.25;;;2.67;;
59930;SDS011;45790;51.538;6.736;2022-11-15T07:23:31;7.07;;;3.10;;
59930;SDS011;45790;51.538;6.736;2022-11-15T07:25:57;5.22;;;3.55;;
59930;SDS011;45790;51.538;6.736;2022-11-15T07:28:23;4.60;;;2.78;;
59930;SDS011;45790;51.538;6.736;2022-11-15T07:30:49;4.47;;;2.53;;
59930;SDS011;45790;51.538;6.736;2022-11-15T07:33:17;5.80;;;3.10;;
59930;SDS011;45790;51.538;6.736;2022-11-15T07:35:43;5.32;;;3.20;;
59930;SDS011;45790;51.538;6.736;2022-11-15T07:38:11;4.78;;;3.03;;
59930;SDS011;45790;51.538;6.736;2022-11-15T07:40:36;4.85;;;3.15;;
59930;SDS011;45790;51.538;6.736;2022-11-15T07:43:03;5.85;;;3.00;;
59930;SDS011;45790;51.538;6.736;2022-11-15T07:45:29;5.00;;;3.17;;
59930;SDS011;45790;51.538;6.736;2022-11-15T07:47:55;5.28;;;3.20;;
59930;SDS011;45790;51.538;6.736;2022-11-15T07:50:21;7.68;;;3.35;;
59930;SDS011;45790;51.538;6.736;2022-11-15T07:52:47;4.80;;;2.90;;
59930;SDS011;45790;51.538;6.736;2022-11-15T07:55:12;5.00;;;3.25;;
59930;SDS011;45790;51.538;6.736;2022-11-15T07:57:38;5.13;;;2.92;;
59930;SDS011;45790;51.538;6.736;2022-11-15T08:00:04;5.47;;;3.45;;
59930;SDS011;45790;51.538;6.736;2022-11-15T08:02:32;4.85;;;2.95;;
59930;SDS011;45790;51.538;6.736;2022-11-15T08:04:58;4.50;;;2.80;;
59930;SDS011;45790;51.538;6.736;2022-11-15T08:07:24;4.72;;;3.03;;
59930;SDS011;45790;51.538;6.736;2022-11-15T08:09:49;4.65;;;2.80;;
59930;SDS011;45790;51.538;6.736;2022-11-15T08:12:14;4.60;;;3.03;;
59930;SDS011;45790;51.538;6.736;2022-11-15T08:14:47;6.70;;;2.90;;
59930;SDS011;45790;51.538;6.736;2022-11-15T08:17:13;5.60;;;3.20;;
59930;SDS011;45790;51.538;6.736;2022-11-15T08:19:38;5.03;;;2.80;;
59930;SDS011;45790;51.538;6.736;2022-11-15T08:22:04;5.15;;;2.70;;
59930;SDS011;45790;51.538;6.736;2022-11-15T08:24:29;5.60;;;2.47;;
59930;SDS011;45790;51.538;6.736;2022-11-15T08:26:54;6.38;;;2.72;;
59930;SDS011;45790;51.538;6.736;2022-11-15T08:29:22;4.60;;;2.70;;
59930;SDS011;45790;51.538;6.736;2022-11-15T08:31:47;6.68;;;3.03;;
59930;SDS011;45790;51.538;6.736;2022-11-15T08:34:12;3.75;;;2.17;;
59930;SDS011;45790;51.538;6.736;2022-11-15T08:36:38;5.28;;;2.30;;
59930;SDS011;45790;51.538;6.736;2022-11-15T08:39:03;6.45;;;2.50;;
59930;SDS011;45790;51.538;6.736;2022-11-15T08:41:30;3.70;;;2.03;;
59930;SDS011;45790;51.538;6.736;2022-11-15T08:44:03;4.13;;;2.20;;
59930;SDS011;45790;51.538;6.736;2022-11-15T08:46:32;3.58;;;2.30;;
59930;SDS011;45790;51.538;6.736;2022-11-15T08:48:57;4.85;;;2.28;;
59930;SDS011;45790;51.538;6.736;2022-11-15T08:51:23;4.57;;;2.22;;
59930;SDS011;45790;51.538;6.736;2022-11-15T08:53:48;4.43;;;2.08;;
59930;SDS011;45790;51.538;6.736;2022-11-15T08:56:14;4.38;;;2.08;;
59930;SDS011;45790;51.538;6.736;2022-11-15T08:58:40;3.38;;;1.92;;
59930;SDS011;45790;51.538;6.736;2022-11-15T09:01:05;4.57;;;2.15;;
59930;SDS011;45790;51.538;6.736;2022-11-15T09:03:31;2.88;;;1.90;;
59930;SDS011;45790;51.538;6.736;2022-11-15T09:05:57;3.65;;;2.00;;
59930;SDS011;45790;51.538;6.736;2022-11-15T09:08:23;4.50;;;2.00;;
59930;SDS011;45790;51.538;6.736;2022-11-15T09:10:49;4.20;;;2.05;;
59930;SDS011;45790;51.538;6.736;2022-11-15T09:13:15;3.95;;;1.90;;
59930;SDS011;45790;51.538;6.736;2022-11-15T09:15:40;5.28;;;1.85;;
59930;SDS011;45790;51.538;6.736;2022-11-15T09:18:05;2.85;;;1.60;;
59930;SDS011;45790;51.538;6.736;2022-11-15T09:20:31;2.40;;;1.55;;
59930;SDS011;45790;51.538;6.736;2022-11-15T09:23:00;2.95;;;1.70;;
59930;SDS011;45790;51.538;6.736;2022-11-15T09:25:26;4.38;;;1.83;;
59930;SDS011;45790;51.538;6.736;2022-11-15T09:27:52;4.25;;;1.80;;
59930;SDS011;45790;51.538;6.736;2022-11-15T09:30:17;3.28;;;1.77;;
59930;SDS011;45790;51.538;6.736;2022-11-15T09:32:42;3.30;;;1.90;;
59930;SDS011;45790;51.538;6.736;2022-11-15T09:35:08;4.80;;;1.80;;
59930;SDS011;45790;51.538;6.736;2022-11-15T09:37:33;3.75;;;1.73;;
59930;SDS011;45790;51.538;6.736;2022-11-15T09:40:01;4.05;;;2.00;;
59930;SDS011;45790;51.538;6.736;2022-11-15T09:45:28;3.67;;;1.98;;
59930;SDS011;45790;51.538;6.736;2022-11-15T09:48:20;5.22;;;1.85;;
59930;SDS011;45790;51.538;6.736;2022-11-15T09:50:51;3.00;;;1.52;;
59930;SDS011;45790;51.538;6.736;2022-11-15T09:53:34;3.55;;;1.90;;
59930;SDS011;45790;51.538;6.736;2022-11-15T09:56:08;3.00;;;1.63;;
59930;SDS011;45790;51.538;6.736;2022-11-15T10:04:02;2.92;;;1.80;;
59930;SDS011;45790;51.538;6.736;2022-11-15T10:06:27;4.15;;;1.92;;
59930;SDS011;45790;51.538;6.736;2022-11-15T10:08:58;2.90;;;1.60;;
59930;SDS011;45790;51.538;6.736;2022-11-15T10:11:32;2.80;;;1.60;;
59930;SDS011;45790;51.538;6.736;2022-11-15T10:14:02;4.22;;;2.00;;
59930;SDS011;45790;51.538;6.736;2022-11-15T10:19:34;3.00;;;1.50;;
59930;SDS011;45790;51.538;6.736;2022-11-15T10:24:35;3.28;;;1.60;;
59930;SDS011;45790;51.538;6.736;2022-11-15T10:27:10;3.75;;;1.77;;
59930;SDS011;45790;51.538;6.736;2022-11-15T10:29:42;4.47;;;1.98;;
59930;SDS011;45790;51.538;6.736;2022-11-15T10:32:10;3.72;;;1.83;;
59930;SDS011;45790;51.538;6.736;2022-11-15T10:34:38;3.50;;;1.90;;
59930;SDS011;45790;51.538;6.736;2022-11-15T10:37:04;4.30;;;2.20;;
59930;SDS011;45790;51.538;6.736;2022-11-15T10:39:29;3.88;;;1.95;;
59930;SDS011;45790;51.538;6.736;2022-11-15T10:41:55;4.57;;;1.92;;
59930;SDS011;45790;51.538;6.736;2022-11-15T10:44:22;4.68;;;1.90;;
59930;SDS011;45790;51.538;6.736;2022-11-15T10:49:30;6.47;;;2.00;;
59930;SDS011;45790;51.538;6.736;2022-11-15T10:54:43;3.17;;;1.75;;
59930;SDS011;45790;51.538;6.736;2022-11-15T10:57:14;2.30;;;1.40;;
59930;SDS011;45790;51.538;6.736;2022-11-15T10:59:43;3.72;;;1.65;;
59930;SDS011;45790;51.538;6.736;2022-11-15T11:05:03;4.15;;;1.75;;
59930;SDS011;45790;51.538;6.736;2022-11-15T11:07:31;3.28;;;1.52;;
59930;SDS011;45790;51.538;6.736;2022-11-15T11:12:41;4.50;;;1.63;;
59930;SDS011;45790;51.538;6.736;2022-11-15T11:15:12;3.03;;;1.35;;
59930;SDS011;45790;51.538;6.736;2022-11-15T11:17:46;4.50;;;1.65;;
59930;SDS011;45790;51.538;6.736;2022-11-15T11:30:47;3.15;;;1.55;;
59930;SDS011;45790;51.538;6.736;2022-11-15T11:33:24;3.33;;;1.55;;
59930;SDS011;45790;51.538;6.736;2022-11-15T11:36:05;3.03;;;1.88;;
59930;SDS011;45790;51.538;6.736;2022-11-15T11:38:45;2.70;;;1.52;;
59930;SDS011;45790;51.538;6.736;2022-11-15T11:46:55;3.40;;;1.90;;
59930;SDS011;45790;51.538;6.736;2022-11-15T11:49:28;3.83;;;1.50;;
59930;SDS011;45790;51.538;6.736;2022-11-15T12:00:24;3.35;;;1.48;;
59930;SDS011;45790;51.538;6.736;2022-11-15T12:05:35;3.15;;;1.50;;
59930;SDS011;45790;51.538;6.736;2022-11-15T12:13:38;3.60;;;1.65;;
59930;SDS011;45790;51.538;6.736;2022-11-15T12:16:11;3.58;;;1.50;;
59930;SDS011;45790;51.538;6.736;2022-11-15T12:18:43;4.47;;;1.55;;
59930;SDS011;45790;51.538;6.736;2022-11-15T12:24:01;8.32;;;1.77;;
59930;SDS011;45790;51.538;6.736;2022-11-15T12:26:34;5.07;;;1.63;;
59930;SDS011;45790;51.538;6.736;2022-11-15T12:29:14;5.28;;;1.67;;
59930;SDS011;45790;51.538;6.736;2022-11-15T12:31:43;5.18;;;1.63;;
59930;SDS011;45790;51.538;6.736;2022-11-15T12:36:45;2.85;;;1.40;;
59930;SDS011;45790;51.538;6.736;2022-11-15T12:39:13;5.32;;;1.70;;
59930;SDS011;45790;51.538;6.736;2022-11-15T12:41:44;4.65;;;1.50;;
59930;SDS011;45790;51.538;6.736;2022-11-15T12:49:42;3.22;;;1.30;;
59930;SDS011;45790;51.538;6.736;2022-11-15T12:52:09;3.65;;;1.52;;
59930;SDS011;45790;51.538;6.736;2022-11-15T13:17:38;3.42;;;1.45;;
59930;SDS011;45790;51.538;6.736;2022-11-15T13:28:25;1.77;;;0.90;;
59930;SDS011;45790;51.538;6.736;2022-11-15T13:30:55;2.88;;;1.42;;
59930;SDS011;45790;51.538;6.736;2022-11-15T13:35:58;2.15;;;1.17;;
59930;SDS011;45790;51.538;6.736;2022-11-15T13:38:26;3.22;;;1.00;;
59930;SDS011;45790;51.538;6.736;2022-11-15T13:40:52;2.72;;;1.08;;
59930;SDS011;45790;51.538;6.736;2022-11-15T13:43:25;2.67;;;1.15;;
59930;SDS011;45790;51.538;6.736;2022-11-15T13:48:39;2.15;;;0.93;;
59930;SDS011;45790;51.538;6.736;2022-11-15T13:51:19;2.50;;;1.00;;
59930;SDS011;45790;51.538;6.736;2022-11-15T13:53:47;1.42;;;1.00;;
59930;SDS011;45790;51.538;6.736;2022-11-15T13:56:15;1.83;;;1.15;;
59930;SDS011;45790;51.538;6.736;2022-11-15T13:58:42;3.30;;;1.00;;
59930;SDS011;45790;51.538;6.736;2022-11-15T14:01:11;2.45;;;1.10;;
59930;SDS011;45790;51.538;6.736;2022-11-15T14:03:50;2.20;;;0.90;;
59930;SDS011;45790;51.538;6.736;2022-11-15T14:06:19;1.90;;;1.00;;
59930;SDS011;45790;51.538;6.736;2022-11-15T14:09:00;2.00;;;0.80;;
59930;SDS011;45790;51.538;6.736;2022-11-15T14:11:27;1.55;;;0.80;;
59930;SDS011;45790;51.538;6.736;2022-11-15T14:19:13;2.58;;;1.05;;
59930;SDS011;45790;51.538;6.736;2022-11-15T14:22:13;2.28;;;0.77;;
59930;SDS011;45790;51.538;6.736;2022-11-15T14:27:37;3.20;;;0.90;;
59930;SDS011;45790;51.538;6.736;2022-11-15T14:30:04;3.80;;;0.98;;
59930;SDS011;45790;51.538;6.736;2022-11-15T14:32:48;3.97;;;0.90;;
59930;SDS011;45790;51.538;6.736;2022-11-15T14:35:16;1.85;;;0.90;;
59930;SDS011;45790;51.538;6.736;2022-11-15T14:37:43;1.30;;;0.65;;
59930;SDS011;45790;51.538;6.736;2022-11-15T14:40:08;3.45;;;0.90;;
59930;SDS011;45790;51.538;6.736;2022-11-15T14:42:37;1.58;;;0.80;;
59930;SDS011;45790;51.538;6.736;2022-11-15T14:45:02;2.63;;;1.10;;
59930;SDS011;45790;51.538;6.736;2022-11-15T14:47:29;2.10;;;0.82;;
59930;SDS011;45790;51.538;6.736;2022-11-15T14:49:55;1.30;;;1.00;;
59930;SDS011;45790;51.538;6.736;2022-11-15T14:54:53;3.40;;;0.82;;
59930;SDS011;45790;51.538;6.736;2022-11-15T14:57:21;1.98;;;0.80;;
59930;SDS011;45790;51.538;6.736;2022-11-15T14:59:47;3.28;;;0.80;;
59930;SDS011;45790;51.538;6.736;2022-11-15T15:02:19;2.70;;;1.02;;
59930;SDS011;45790;51.538;6.736;2022-11-15T15:04:49;2.70;;;0.68;;
59930;SDS011;45790;51.538;6.736;2022-11-15T15:07:14;2.05;;;0.75;;
59930;SDS011;45790;51.538;6.736;2022-11-15T15:09:40;1.73;;;1.00;;
59930;SDS011;45790;51.538;6.736;2022-11-15T15:12:18;3.88;;;1.02;;
59930;SDS011;45790;51.538;6.736;2022-11-15T15:14:45;2.72;;;0.80;;
59930;SDS011;45790;51.538;6.736;2022-11-15T15:17:12;3.05;;;0.88;;
59930;SDS011;45790;51.538;6.736;2022-11-15T15:19:37;2.13;;;0.88;;
59930;SDS011;45790;51.538;6.736;2022-11-15T15:22:03;1.67;;;0.73;;
59930;SDS011;45790;51.538;6.736;2022-11-15T15:24:32;2.80;;;1.00;;
59930;SDS011;45790;51.538;6.736;2022-11-15T15:26:57;2.42;;;1.00;;
59930;SDS011;45790;51.538;6.736;2022-11-15T15:29:22;1.35;;;0.75;;
59930;SDS011;45790;51.538;6.736;2022-11-15T15:31:48;1.83;;;1.00;;
59930;SDS011;45790;51.538;6.736;2022-11-15T15:34:13;2.17;;;0.80;;
59930;SDS011;45790;51.538;6.736;2022-11-15T15:36:41;4.30;;;1.42;;
59930;SDS011;45790;51.538;6.736;2022-11-15T15:39:08;3.40;;;1.00;;
59930;SDS011;45790;51.538;6.736;2022-11-15T15:41:36;3.47;;;1.35;;
59930;SDS011;45790;51.538;6.736;2022-11-15T15:44:04;2.45;;;0.80;;
59930;SDS011;45790;51.538;6.736;2022-11-15T15:46:29;1.88;;;0.80;;
59930;SDS011;45790;51.538;6.736;2022-11-15T15:48:55;2.28;;;1.00;;
59930;SDS011;45790;51.538;6.736;2022-11-15T15:51:20;2.80;;;1.00;;
59930;SDS011;45790;51.538;6.736;2022-11-15T15:53:45;2.05;;;0.90;;
59930;SDS011;45790;51.538;6.736;2022-11-15T15:56:11;2.40;;;1.00;;
59930;SDS011;45790;51.538;6.736;2022-11-15T15:58:37;3.38;;;0.88;;
59930;SDS011;45790;51.538;6.736;2022-11-15T16:01:02;2.45;;;1.00;;
59930;SDS011;45790;51.538;6.736;2022-11-15T16:03:28;2.88;;;1.00;;
59930;SDS011;45790;51.538;6.736;2022-11-15T16:05:53;2.15;;;0.98;;
59930;SDS011;45790;51.538;6.736;2022-11-15T16:08:19;1.98;;;1.00;;
59930;SDS011;45790;51.538;6.736;2022-11-15T16:10:48;3.28;;;1.10;;
59930;SDS011;45790;51.538;6.736;2022-11-15T16:13:14;2.13;;;1.10;;
59930;SDS011;45790;51.538;6.736;2022-11-15T16:15:39;1.77;;;1.10;;
59930;SDS011;45790;51.538;6.736;2022-11-15T16:18:05;3.35;;;1.00;;
59930;SDS011;45790;51.538;6.736;2022-11-15T16:22:58;2.38;;;1.10;;
59930;SDS011;45790;51.538;6.736;2022-11-15T16:25:24;2.45;;;1.10;;
59930;SDS011;45790;51.538;6.736;2022-11-15T16:27:49;2.13;;;1.10;;
59930;SDS011;45790;51.538;6.736;2022-11-15T16:30:15;3.13;;;1.10;;
59930;SDS011;45790;51.538;6.736;2022-11-15T16:32:42;2.22;;;1.10;;
59930;SDS011;45790;51.538;6.736;2022-11-15T16:35:14;2.85;;;1.42;;
59930;SDS011;45790;51.538;6.736;2022-11-15T16:37:41;2.63;;;1.00;;
59930;SDS011;45790;51.538;6.736;2022-11-15T16:40:26;2.00;;;1.00;;
59930;SDS011;45790;51.538;6.736;2022-11-15T16:42:58;2.15;;;1.02;;
59930;SDS011;45790;51.538;6.736;2022-11-15T16:45:24;2.35;;;1.10;;
59930;SDS011;45790;51.538;6.736;2022-11-15T16:47:50;3.22;;;1.38;;
59930;SDS011;45790;51.538;6.736;2022-11-15T16:50:26;2.17;;;1.20;;
59930;SDS011;45790;51.538;6.736;2022-11-15T16:52:54;2.53;;;1.30;;
59930;SDS011;45790;51.538;6.736;2022-11-15T16:55:21;1.88;;;1.20;;
59930;SDS011;45790;51.538;6.736;2022-11-15T16:57:57;3.83;;;1.35;;
59930;SDS011;45790;51.538;6.736;2022-11-15T17:00:23;2.75;;;1.33;;
59930;SDS011;45790;51.538;6.736;2022-11-15T17:02:49;3.75;;;1.35;;
59930;SDS011;45790;51.538;6.736;2022-11-15T17:05:16;3.45;;;1.33;;
59930;SDS011;45790;51.538;6.736;2022-11-15T17:07:43;2.45;;;1.27;;
59930;SDS011;45790;51.538;6.736;2022-11-15T17:10:12;2.65;;;1.30;;
59930;SDS011;45790;51.538;6.736;2022-11-15T17:12:38;2.80;;;1.27;;
59930;SDS011;45790;51.538;6.736;2022-11-15T17:15:03;2.70;;;1.40;;
59930;SDS011;45790;51.538;6.736;2022-11-15T17:17:30;2.95;;;1.60;;
59930;SDS011;45790;51.538;6.736;2022-11-15T17:19:55;2.58;;;1.40;;
59930;SDS011;45790;51.538;6.736;2022-11-15T17:22:21;2.50;;;1.30;;
59930;SDS011;45790;51.538;6.736;2022-11-15T17:24:47;2.10;;;1.33;;